createdAt,value
2022-09-29T00:02:04.296Z,27.40
2022-09-29T00:04:43.209Z,27.40
2022-09-29T00:07:15.247Z,27.30
2022-09-29T00:09:49.442Z,27.20
2022-09-29T00:12:20.593Z,27.00
2022-09-29T00:14:52.488Z,26.90
2022-09-29T00:17:23.586Z,26.80
2022-09-29T00:19:53.342Z,26.70
2022-09-29T00:22:24.508Z,26.70
2022-09-29T00:24:55.970Z,26.60
2022-09-29T00:27:26.179Z,26.50
2022-09-29T00:29:57.195Z,26.50
2022-09-29T00:32:27.755Z,26.40
2022-09-29T00:34:57.752Z,26.40
2022-09-29T00:37:31.545Z,26.20
2022-09-29T00:40:02.904Z,26.20
2022-09-29T00:42:34.864Z,26.10
2022-09-29T00:45:17.806Z,26.00
2022-09-29T00:47:55.910Z,25.90
2022-09-29T00:50:41.989Z,25.90
2022-09-29T00:53:21.501Z,25.70
2022-09-29T00:56:01.882Z,25.70
2022-09-29T00:58:34.951Z,25.60
2022-09-29T01:01:09.661Z,25.50
2022-09-29T01:03:48.011Z,25.50
2022-09-29T01:06:30.855Z,25.40
2022-09-29T01:09:10.505Z,25.40
2022-09-29T01:11:45.017Z,25.40
2022-09-29T01:14:17.431Z,25.40
2022-09-29T01:16:49.957Z,25.30
2022-09-29T01:19:53.057Z,25.20
2022-09-29T01:23:01.621Z,25.20
2022-09-29T01:25:51.048Z,25.10
2022-09-29T01:28:48.894Z,25.10
2022-09-29T01:31:33.383Z,25.10
2022-09-29T01:34:21.905Z,24.90
2022-09-29T01:36:56.210Z,24.80
2022-09-29T01:39:48.834Z,24.80
2022-09-29T01:42:24.645Z,24.70
2022-09-29T01:45:18.149Z,24.60
2022-09-29T01:47:57.934Z,24.50
2022-09-29T01:50:53.665Z,24.60
2022-09-29T01:53:32.215Z,24.80
2022-09-29T01:56:12.383Z,24.80
2022-09-29T01:58:57.461Z,24.50
2022-09-29T02:01:36.680Z,24.50
2022-09-29T02:04:34.656Z,24.30
2022-09-29T02:07:27.433Z,24.20
2022-09-29T02:10:08.364Z,24.20
2022-09-29T02:12:42.976Z,24.10
2022-09-29T02:15:22.933Z,24.10
2022-09-29T02:17:54.607Z,24.00
2022-09-29T02:20:27.167Z,23.90
2022-09-29T02:23:04.357Z,23.80
2022-09-29T02:25:40.219Z,23.90
2022-09-29T02:28:10.899Z,23.80
2022-09-29T02:30:42.093Z,23.70
2022-09-29T02:33:27.543Z,23.60
2022-09-29T02:36:14.251Z,23.60
2022-09-29T02:38:53.743Z,23.70
2022-09-29T02:41:35.381Z,23.60
2022-09-29T02:44:28.783Z,23.60
2022-09-29T02:47:09.209Z,23.50
2022-09-29T02:49:42.634Z,23.50
2022-09-29T02:52:25.676Z,23.50
2022-09-29T02:55:25.268Z,23.40
2022-09-29T02:58:08.239Z,23.40
2022-09-29T03:00:40.875Z,23.30
2022-09-29T03:03:12.371Z,23.30
2022-09-29T03:05:45.092Z,23.30
2022-09-29T03:08:15.992Z,23.20
2022-09-29T03:10:49.514Z,23.20
2022-09-29T03:13:22.559Z,23.10
2022-09-29T03:15:53.275Z,23.10
2022-09-29T03:18:29.428Z,23.20
2022-09-29T03:21:00.135Z,23.20
2022-09-29T03:23:30.542Z,23.00
2022-09-29T03:26:01.897Z,22.90
2022-09-29T03:28:36.744Z,22.90
2022-09-29T03:31:13.737Z,22.90
2022-09-29T03:33:45.060Z,22.80
2022-09-29T03:36:16.424Z,22.80
2022-09-29T03:38:47.804Z,22.70
2022-09-29T03:41:21.258Z,22.70
2022-09-29T03:43:52.260Z,22.70
2022-09-29T03:46:23.742Z,22.60
2022-09-29T03:48:55.469Z,22.60
2022-09-29T03:51:27.021Z,22.60
2022-09-29T03:53:57.897Z,22.50
2022-09-29T03:56:27.349Z,22.50
2022-09-29T03:59:00.101Z,22.50
2022-09-29T04:01:31.211Z,22.50
2022-09-29T04:04:03.719Z,22.40
2022-09-29T04:06:39.990Z,22.50
2022-09-29T04:09:12.305Z,22.50
2022-09-29T04:11:48.511Z,22.40
2022-09-29T04:14:19.708Z,22.40
2022-09-29T04:16:50.015Z,22.30
2022-09-29T04:19:24.049Z,22.30
2022-09-29T04:21:57.377Z,22.30
2022-09-29T04:24:30.857Z,22.20
2022-09-29T04:27:09.264Z,22.20
2022-09-29T04:29:41.684Z,22.10
2022-09-29T04:32:13.983Z,22.10
2022-09-29T04:34:47.115Z,22.00
2022-09-29T04:37:18.996Z,22.00
2022-09-29T04:39:56.583Z,21.90
2022-09-29T04:42:34.636Z,22.00
2022-09-29T04:45:08.935Z,22.00
2022-09-29T04:47:38.599Z,21.90
2022-09-29T04:50:08.521Z,21.70
2022-09-29T04:52:38.335Z,21.60
2022-09-29T04:55:13.335Z,21.50
2022-09-29T04:57:46.676Z,21.60
2022-09-29T05:00:17.941Z,21.60
2022-09-29T05:02:49.845Z,21.60
2022-09-29T05:05:21.505Z,21.60
2022-09-29T05:07:57.583Z,21.60
2022-09-29T05:10:32.876Z,21.50
2022-09-29T05:13:04.716Z,21.40
2022-09-29T05:15:34.888Z,21.30
2022-09-29T05:18:08.002Z,21.40
2022-09-29T05:20:45.560Z,21.30
2022-09-29T05:23:25.733Z,21.30
2022-09-29T05:25:55.345Z,21.30
2022-09-29T05:28:26.704Z,21.40
2022-09-29T05:30:57.453Z,21.40
2022-09-29T05:33:28.100Z,21.30
2022-09-29T05:35:57.805Z,21.30
2022-09-29T05:38:30.115Z,21.30
2022-09-29T05:41:01.554Z,21.10
2022-09-29T05:43:35.213Z,21.10
2022-09-29T05:46:11.358Z,21.00
2022-09-29T05:48:41.801Z,21.10
2022-09-29T05:51:22.438Z,21.10
2022-09-29T05:53:56.005Z,21.00
2022-09-29T05:56:32.534Z,21.00
2022-09-29T05:59:05.602Z,21.10
2022-09-29T06:01:36.068Z,20.90
2022-09-29T06:04:09.921Z,20.90
2022-09-29T06:06:41.388Z,20.90
2022-09-29T06:09:13.178Z,21.00
2022-09-29T06:11:43.536Z,20.90
2022-09-29T06:14:13.021Z,21.00
2022-09-29T06:16:43.463Z,20.80
2022-09-29T06:19:14.800Z,20.90
2022-09-29T06:21:46.088Z,20.90
2022-09-29T06:24:18.214Z,20.90
2022-09-29T06:26:48.588Z,20.90
2022-09-29T06:29:21.584Z,20.80
2022-09-29T06:31:59.789Z,20.80
2022-09-29T06:34:32.061Z,20.70
2022-09-29T06:37:22.893Z,20.60
2022-09-29T06:39:58.819Z,20.60
2022-09-29T06:42:30.454Z,20.50
2022-09-29T06:45:00.877Z,20.40
2022-09-29T06:47:32.526Z,20.40
2022-09-29T06:50:13.161Z,20.40
2022-09-29T06:52:57.010Z,20.40
2022-09-29T06:55:32.033Z,20.50
2022-09-29T06:58:04.251Z,20.50
2022-09-29T07:00:41.048Z,20.40
2022-09-29T07:03:11.602Z,20.30
2022-09-29T07:05:52.782Z,20.30
2022-09-29T07:08:34.978Z,20.40
2022-09-29T07:11:06.777Z,20.20
2022-09-29T07:13:39.214Z,20.20
2022-09-29T07:16:15.209Z,20.20
2022-09-29T07:18:48.248Z,20.10
2022-09-29T07:21:19.590Z,20.00
2022-09-29T07:23:50.484Z,20.20
2022-09-29T07:26:21.443Z,20.10
2022-09-29T07:28:51.890Z,20.10
2022-09-29T07:31:25.065Z,20.10
2022-09-29T07:33:54.550Z,19.90
2022-09-29T07:36:24.284Z,19.90
2022-09-29T07:38:54.455Z,19.90
2022-09-29T07:41:25.774Z,19.90
2022-09-29T07:43:57.063Z,19.90
2022-09-29T07:46:27.503Z,19.90
2022-09-29T07:48:57.613Z,19.80
2022-09-29T07:51:28.114Z,19.80
2022-09-29T07:54:02.648Z,19.90
2022-09-29T07:56:32.562Z,19.90
2022-09-29T07:59:04.194Z,19.90
2022-09-29T08:01:38.507Z,19.80
2022-09-29T08:04:07.684Z,19.80
2022-09-29T08:06:37.892Z,19.80
2022-09-29T08:09:08.888Z,19.80
2022-09-29T08:11:44.573Z,19.80
2022-09-29T08:14:14.949Z,19.80
2022-09-29T08:16:45.534Z,19.80
2022-09-29T08:21:50.927Z,19.80
2022-09-29T08:24:21.068Z,19.70
2022-09-29T08:26:59.487Z,19.70
2022-09-29T08:29:42.707Z,19.80
2022-09-29T08:32:19.621Z,19.70
2022-09-29T08:34:50.808Z,19.70
2022-09-29T08:37:21.200Z,19.70
2022-09-29T08:39:50.586Z,19.70
2022-09-29T08:42:46.980Z,19.70
2022-09-29T08:45:55.264Z,19.70
2022-09-29T08:48:37.564Z,19.70
2022-09-29T08:51:41.672Z,19.70
2022-09-29T08:54:38.748Z,19.70
2022-09-29T08:57:19.756Z,19.60
2022-09-29T09:00:00.145Z,19.60
2022-09-29T09:03:07.803Z,19.60
2022-09-29T09:05:56.988Z,19.50
2022-09-29T09:08:45.272Z,19.40
2022-09-29T09:11:52.374Z,19.40
2022-09-29T09:15:04.914Z,19.40
2022-09-29T09:17:59.822Z,19.40
2022-09-29T09:20:48.550Z,19.40
2022-09-29T09:23:23.456Z,19.30
2022-09-29T09:26:02.983Z,19.20
2022-09-29T09:28:49.956Z,19.10
2022-09-29T09:31:34.720Z,19.00
2022-09-29T09:35:15.579Z,19.10
2022-09-29T09:37:55.377Z,19.10
2022-09-29T09:40:33.485Z,19.00
2022-09-29T09:43:21.465Z,18.90
2022-09-29T09:45:58.554Z,18.90
2022-09-29T09:49:23.192Z,18.90
2022-09-29T09:52:07.465Z,18.80
2022-09-29T09:55:05.389Z,18.70
2022-09-29T09:58:04.970Z,18.70
2022-09-29T10:00:41.381Z,18.60
2022-09-29T10:03:13.576Z,18.50
2022-09-29T10:05:46.775Z,18.50
2022-09-29T10:08:31.614Z,18.50
2022-09-29T10:11:02.397Z,18.40
2022-09-29T10:13:35.639Z,18.40
2022-09-29T10:16:19.323Z,18.50
2022-09-29T10:18:53.289Z,18.40
2022-09-29T10:21:39.883Z,18.30
2022-09-29T10:24:32.313Z,18.30
2022-09-29T10:27:04.639Z,18.40
2022-09-29T10:29:41.485Z,18.40
2022-09-29T10:32:24.930Z,18.50
2022-09-29T10:35:18.296Z,18.50
2022-09-29T10:38:03.382Z,18.50
2022-09-29T10:40:38.453Z,18.50
2022-09-29T10:43:45.661Z,18.50
2022-09-29T10:46:49.412Z,18.40
2022-09-29T10:49:30.486Z,18.30
2022-09-29T10:52:06.223Z,18.30
2022-09-29T10:54:43.335Z,18.20
2022-09-29T10:57:17.482Z,18.20
2022-09-29T10:59:53.598Z,18.20
2022-09-29T11:02:29.335Z,18.20
2022-09-29T11:05:04.992Z,18.10
2022-09-29T11:07:35.694Z,18.10
2022-09-29T11:10:07.816Z,18.10
2022-09-29T11:12:43.224Z,18.10
2022-09-29T11:15:41.796Z,18.00
2022-09-29T11:18:50.731Z,17.90
2022-09-29T11:21:45.458Z,17.90
2022-09-29T11:24:42.357Z,17.90
2022-09-29T11:27:14.199Z,18.00
2022-09-29T11:29:57.525Z,18.00
2022-09-29T11:32:40.917Z,17.90
2022-09-29T11:35:24.110Z,17.90
2022-09-29T11:38:34.887Z,17.90
2022-09-29T11:41:16.102Z,17.90
2022-09-29T11:43:47.856Z,17.80
2022-09-29T11:46:22.271Z,17.70
2022-09-29T11:48:55.358Z,17.70
2022-09-29T11:51:57.257Z,17.70
2022-09-29T11:54:37.022Z,17.80
2022-09-29T11:57:19.186Z,17.80
2022-09-29T12:00:12.462Z,17.70
2022-09-29T12:03:01.618Z,17.60
2022-09-29T12:05:56.077Z,17.70
2022-09-29T12:08:47.960Z,17.70
2022-09-29T12:12:11.825Z,17.70
2022-09-29T12:15:15.803Z,17.70
2022-09-29T12:18:13.249Z,17.90
2022-09-29T12:20:48.751Z,17.90
2022-09-29T12:23:27.182Z,18.00
2022-09-29T12:26:11.380Z,18.20
2022-09-29T12:29:02.394Z,18.10
2022-09-29T12:31:40.830Z,17.90
2022-09-29T12:34:32.065Z,17.80
2022-09-29T12:37:13.530Z,17.90
2022-09-29T12:39:48.898Z,17.90
2022-09-29T12:42:37.914Z,18.00
2022-09-29T12:45:34.261Z,18.00
2022-09-29T12:48:26.623Z,18.20
2022-09-29T12:51:19.518Z,18.30
2022-09-29T12:54:02.553Z,18.20
2022-09-29T12:56:45.500Z,18.10
2022-09-29T12:59:36.283Z,18.10
2022-09-29T13:02:26.068Z,17.90
2022-09-29T13:05:22.135Z,18.10
2022-09-29T13:08:09.061Z,18.00
2022-09-29T13:10:46.679Z,18.20
2022-09-29T13:13:48.490Z,18.20
2022-09-29T13:16:26.190Z,18.20
2022-09-29T13:19:20.685Z,18.40
2022-09-29T13:22:21.925Z,18.40
2022-09-29T13:25:16.923Z,18.60
2022-09-29T13:27:50.747Z,18.60
2022-09-29T13:30:38.593Z,18.60
2022-09-29T13:33:29.653Z,18.60
2022-09-29T13:36:01.087Z,18.70
2022-09-29T13:38:39.630Z,19.00
2022-09-29T13:41:19.852Z,19.30
2022-09-29T13:44:00.432Z,19.40
2022-09-29T13:46:33.756Z,19.50
2022-09-29T13:49:13.572Z,19.60
2022-09-29T13:51:47.351Z,19.50
2022-09-29T13:54:35.080Z,19.70
2022-09-29T13:57:26.631Z,19.70
2022-09-29T13:59:57.985Z,19.70
2022-09-29T14:02:42.125Z,19.80
2022-09-29T14:05:27.164Z,20.00
2022-09-29T14:08:03.468Z,20.10
2022-09-29T14:10:42.521Z,20.10
2022-09-29T14:13:31.597Z,20.10
2022-09-29T14:16:39.050Z,20.20
2022-09-29T14:19:40.629Z,20.30
2022-09-29T14:22:33.190Z,20.40
2022-09-29T14:25:17.691Z,20.50
2022-09-29T14:28:05.728Z,20.60
2022-09-29T14:30:37.140Z,20.60
2022-09-29T14:33:36.723Z,20.60
2022-09-29T14:36:13.256Z,20.70
2022-09-29T14:39:21.424Z,20.70
2022-09-29T14:41:52.337Z,20.80
2022-09-29T14:44:53.761Z,20.90
2022-09-29T14:48:06.889Z,21.00
2022-09-29T14:51:21.164Z,21.20
2022-09-29T14:54:22.360Z,21.20
2022-09-29T14:57:06.615Z,21.50
2022-09-29T14:59:44.198Z,21.50
2022-09-29T15:02:31.239Z,21.70
2022-09-29T15:05:01.870Z,21.80
2022-09-29T15:07:38.566Z,21.90
2022-09-29T15:10:28.288Z,22.10
2022-09-29T15:13:25.685Z,22.10
2022-09-29T15:16:13.520Z,22.30
2022-09-29T15:19:04.685Z,22.30
2022-09-29T15:21:38.454Z,22.40
2022-09-29T15:24:32.288Z,22.50
2022-09-29T15:27:06.169Z,22.60
2022-09-29T15:29:36.418Z,22.80
2022-09-29T15:32:18.852Z,22.90
2022-09-29T15:34:53.910Z,22.90
2022-09-29T15:37:30.236Z,22.90
2022-09-29T15:40:05.360Z,23.10
2022-09-29T15:42:41.004Z,23.20
2022-09-29T15:45:31.225Z,23.30
2022-09-29T15:48:07.579Z,23.30
2022-09-29T15:50:44.974Z,23.30
2022-09-29T15:53:16.730Z,23.50
2022-09-29T15:55:53.727Z,23.60
2022-09-29T15:58:34.765Z,23.70
2022-09-29T16:01:30.421Z,23.70
2022-09-29T16:04:05.450Z,23.80
2022-09-29T16:06:39.247Z,23.90
2022-09-29T16:09:22.555Z,24.10
2022-09-29T16:11:52.672Z,24.00
2022-09-29T16:14:32.545Z,24.20
2022-09-29T16:17:01.945Z,24.20
2022-09-29T16:19:37.057Z,24.20
2022-09-29T16:22:11.790Z,24.10
2022-09-29T16:24:56.838Z,24.10
2022-09-29T16:27:55.257Z,24.60
2022-09-29T16:30:31.594Z,24.60
2022-09-29T16:33:06.892Z,24.60
2022-09-29T16:36:04.517Z,24.60
2022-09-29T16:38:47.285Z,24.50
2022-09-29T16:41:22.363Z,24.70
2022-09-29T16:43:56.329Z,24.70
2022-09-29T16:46:28.694Z,24.70
2022-09-29T16:49:01.918Z,24.80
2022-09-29T16:51:41.472Z,24.90
2022-09-29T16:54:22.163Z,25.00
2022-09-29T16:57:20.965Z,25.10
2022-09-29T16:59:59.643Z,25.00
2022-09-29T17:02:30.246Z,25.10
2022-09-29T17:05:05.241Z,25.30
2022-09-29T17:07:45.843Z,25.40
2022-09-29T17:10:23.611Z,25.20
2022-09-29T17:12:53.555Z,25.20
2022-09-29T17:15:26.277Z,25.60
2022-09-29T17:17:57.714Z,25.50
2022-09-29T17:20:31.080Z,25.60
2022-09-29T17:23:02.378Z,25.70
2022-09-29T17:25:33.614Z,25.80
2022-09-29T17:28:16.304Z,25.80
2022-09-29T17:30:49.599Z,25.50
2022-09-29T17:33:22.433Z,25.50
2022-09-29T17:35:56.290Z,25.80
2022-09-29T17:38:28.136Z,26.00
2022-09-29T17:41:07.053Z,26.10
2022-09-29T17:43:38.073Z,26.10
2022-09-29T17:46:13.364Z,26.20
2022-09-29T17:48:43.630Z,26.40
2022-09-29T17:51:21.634Z,26.50
2022-09-29T17:53:54.086Z,26.50
2022-09-29T17:56:28.905Z,26.50
2022-09-29T17:58:58.382Z,26.50
2022-09-29T18:01:31.655Z,26.60
2022-09-29T18:04:02.117Z,26.70
2022-09-29T18:06:33.736Z,26.60
2022-09-29T18:09:15.962Z,26.60
2022-09-29T18:11:49.722Z,26.60
2022-09-29T18:14:21.085Z,26.80
2022-09-29T18:16:51.890Z,26.80
2022-09-29T18:19:23.047Z,26.70
2022-09-29T18:21:58.922Z,26.60
2022-09-29T18:24:29.518Z,26.70
2022-09-29T18:27:01.477Z,26.60
2022-09-29T18:29:34.944Z,27.00
2022-09-29T18:32:06.114Z,27.00
2022-09-29T18:34:37.878Z,27.00
2022-09-29T18:37:09.654Z,27.10
2022-09-29T18:39:40.028Z,27.30
2022-09-29T18:42:13.840Z,27.30
2022-09-29T18:44:45.224Z,27.10
2022-09-29T18:47:15.717Z,27.30
2022-09-29T18:49:45.976Z,27.40
2022-09-29T18:52:15.700Z,27.30
2022-09-29T18:54:50.855Z,27.40
2022-09-29T18:57:22.866Z,27.20
2022-09-29T18:59:53.748Z,27.30
2022-09-29T19:02:28.507Z,27.50
2022-09-29T19:04:58.378Z,27.50
2022-09-29T19:07:32.708Z,27.70
2022-09-29T19:10:06.311Z,27.80
2022-09-29T19:12:36.729Z,27.60
2022-09-29T19:15:06.598Z,27.60
2022-09-29T19:17:39.387Z,27.70
2022-09-29T19:20:12.608Z,27.70
2022-09-29T19:22:45.209Z,27.70
2022-09-29T19:25:21.484Z,27.80
2022-09-29T19:27:52.497Z,28.00
2022-09-29T19:30:23.084Z,27.90
2022-09-29T19:32:54.125Z,27.80
2022-09-29T19:35:31.940Z,27.80
2022-09-29T19:38:01.816Z,27.90
2022-09-29T19:40:42.121Z,28.20
2022-09-29T19:43:14.766Z,28.20
2022-09-29T19:45:45.536Z,28.30
2022-09-29T19:48:23.822Z,28.30
2022-09-29T19:51:21.285Z,28.40
2022-09-29T19:54:11.636Z,28.50
2022-09-29T19:56:44.716Z,28.50
2022-09-29T19:59:17.761Z,28.30
2022-09-29T20:01:51.495Z,28.40
2022-09-29T20:04:29.329Z,28.40
2022-09-29T20:07:01.238Z,28.60
2022-09-29T20:09:34.698Z,28.50
2022-09-29T20:12:06.636Z,28.70
2022-09-29T20:14:41.219Z,28.70
2022-09-29T20:17:12.853Z,28.70
2022-09-29T20:19:43.178Z,28.70
2022-09-29T20:22:16.222Z,28.70
2022-09-29T20:24:47.299Z,28.80
2022-09-29T20:27:17.925Z,28.60
2022-09-29T20:29:50.473Z,28.70
2022-09-29T20:32:23.214Z,28.70
2022-09-29T20:34:53.916Z,28.80
2022-09-29T20:37:26.980Z,28.90
2022-09-29T20:39:56.522Z,28.90
2022-09-29T20:42:28.182Z,28.90
2022-09-29T20:44:58.666Z,29.00
2022-09-29T20:47:29.867Z,28.90
2022-09-29T20:49:59.756Z,29.10
2022-09-29T20:52:31.446Z,29.00
2022-09-29T20:55:04.236Z,28.90
2022-09-29T20:57:35.270Z,28.90
2022-09-29T21:00:10.916Z,28.90
2022-09-29T21:02:40.810Z,29.00
2022-09-29T21:05:10.828Z,29.10
2022-09-29T21:07:42.402Z,29.20
2022-09-29T21:10:14.804Z,29.20
2022-09-29T21:12:47.903Z,29.30
2022-09-29T21:15:18.027Z,29.20
2022-09-29T21:17:48.882Z,29.20
2022-09-29T21:20:20.075Z,29.20
2022-09-29T21:22:55.663Z,29.20
2022-09-29T21:25:28.709Z,29.40
2022-09-29T21:27:57.833Z,29.30
2022-09-29T21:30:27.161Z,29.30
2022-09-29T21:32:57.018Z,29.40
2022-09-29T21:35:28.613Z,29.50
2022-09-29T21:37:58.679Z,29.40
2022-09-29T21:40:32.627Z,29.40
2022-09-29T21:43:02.460Z,29.40
2022-09-29T21:45:33.144Z,29.40
2022-09-29T21:48:13.098Z,29.40
2022-09-29T21:50:42.907Z,29.30
2022-09-29T21:53:14.728Z,29.30
2022-09-29T21:55:45.606Z,29.40
2022-09-29T21:58:15.420Z,29.40
2022-09-29T22:00:45.669Z,29.30
2022-09-29T22:03:16.878Z,29.40
2022-09-29T22:05:47.496Z,29.40
2022-09-29T22:08:16.920Z,29.40
2022-09-29T22:10:51.342Z,29.50
2022-09-29T22:13:27.712Z,29.50
2022-09-29T22:16:11.392Z,29.60
2022-09-29T22:18:42.538Z,29.60
2022-09-29T22:21:15.324Z,29.50
2022-09-29T22:23:47.903Z,29.50
2022-09-29T22:26:20.370Z,29.50
2022-09-29T22:28:54.407Z,29.50
2022-09-29T22:31:26.444Z,29.50
2022-09-29T22:34:01.700Z,29.40
2022-09-29T22:36:33.533Z,29.40
2022-09-29T22:39:06.562Z,29.40
2022-09-29T22:41:40.926Z,29.40
2022-09-29T22:44:12.746Z,29.40
2022-09-29T22:46:43.391Z,29.40
2022-09-29T22:49:14.197Z,29.40
2022-09-29T22:51:44.280Z,29.40
2022-09-29T22:54:16.286Z,29.30
2022-09-29T22:56:48.531Z,29.30
2022-09-29T22:59:20.706Z,29.30
2022-09-29T23:01:51.191Z,29.20
2022-09-29T23:04:22.912Z,29.20
2022-09-29T23:06:55.556Z,29.20
2022-09-29T23:09:29.404Z,29.20
2022-09-29T23:11:59.397Z,29.10
2022-09-29T23:14:31.145Z,29.10
2022-09-29T23:17:09.037Z,29.10
2022-09-29T23:19:40.301Z,29.10
2022-09-29T23:22:10.542Z,29.10
2022-09-29T23:24:40.653Z,29.10
2022-09-29T23:27:13.522Z,29.10
2022-09-29T23:29:44.174Z,29.00
2022-09-29T23:32:16.772Z,29.00
2022-09-29T23:34:47.672Z,28.90
2022-09-29T23:37:18.196Z,28.80
2022-09-29T23:39:49.677Z,28.80
2022-09-29T23:42:29.008Z,28.70
2022-09-29T23:45:02.212Z,28.70
2022-09-29T23:47:36.174Z,28.60
2022-09-29T23:50:08.056Z,28.50
2022-09-29T23:52:38.163Z,28.40
2022-09-29T23:55:08.479Z,28.30
2022-09-29T23:57:39.288Z,28.30
